Flight Track Log - Related Links

Times and Time Zones

All times are in EDT time to prevent confusion due to time zone crossing. See the JBU56 flight status page for this flight to view local times or setup timezone preferences in your user account.

Time Position Orientation Groundspeed Altitude Reporting Facility
EDT Latitude Longitude Course Direction KTS MPH feet Rate Location/Type
Wed 09:13:57 AM 39.0000 -77.4667 74° East 169 194 2,400  Level Potomac TRACON
Wed 09:14:57 AM 39.0667 -77.4833 349° North 230 265 4,500 2,600 Climbing Potomac TRACON
Wed 09:15:00 AM 39.0068 -77.0792 77° East  Level FlightAware
Wed 09:15:57 AM 39.1333 -77.4500 21° North 288 331 7,600  Level Potomac TRACON
Wed 09:16:00 AM 39.0306 -76.9485 77° East  Level FlightAware
Wed 09:16:51 AM 39.1667 -77.3667 63° Northeast 310 357 9,800  Level Potomac TRACON
Wed 09:17:00 AM 39.0527 -76.8174 78° East  Level FlightAware
Wed 09:17:51 AM 39.1667 -77.2500 90° East 360 414 10,000  Level Potomac TRACON
Wed 09:18:00 AM 39.0667 -76.6849 90° East  Level FlightAware
Wed 09:18:51 AM 39.1333 -77.1333 110° East 374 430 11,000  Level Potomac TRACON
Wed 09:19:00 AM 39.0854 -76.5573 74° East  Level FlightAware
Wed 09:21:02 AM 39.0881 -76.8511 102° East 394 453 15,800  Level Washington Center
Wed 09:22:03 AM 39.1042 -76.7069 82° East 388 447 17,900 2,132 Climbing Washington Center
Wed 09:23:03 AM 39.1178 -76.5600 83° East 403 464 20,100 2,214 Climbing Washington Center
Wed 09:23:46 AM 39.1333 -76.4333 81° East 428 493 21,700 1,475 Climbing Potomac TRACON
Wed 09:25:01 AM 39.1469 -76.2528 84° East 427 491 23,000 971 Climbing Washington Center
Wed 09:26:02 AM 39.1686 -76.0817 81° East 433 498 23,900 885 Climbing Washington Center
Wed 09:27:03 AM 39.1900 -75.9156 81° East 450 518 24,800 942 Climbing Washington Center
Wed 09:28:03 AM 39.2653 -75.7819 54° Northeast 444 511 25,800 814 Climbing Washington Center
Wed 09:29:01 AM 39.3594 -75.6614 45° Northeast 452 520 26,400 706 Climbing Washington Center
Wed 09:30:02 AM 39.4572 -75.5378 44° Northeast 458 527 27,200 689 Climbing Washington Center
Wed 09:31:03 AM 39.5531 -75.4167 44° Northeast 470 541 27,800 908 Climbing Washington Center
Wed 09:32:01 AM 39.6506 -75.2869 46° Northeast 482 555 29,000 1,139 Climbing Washington Center
Wed 09:33:20 AM 39.7756 -75.1033 48° Northeast 515 593 30,400 876 Climbing New Center
Wed 09:34:18 AM 39.8722 -74.9686 47° Northeast 515 593 31,000 303 Climbing New Center
Wed 09:35:19 AM 39.9531 -74.8572 47° Northeast 522 601 31,000  Level New Center
Wed 09:36:18 AM 40.0717 -74.6850 48° Northeast 527 606 31,000  Level New Center
Wed 09:37:18 AM 40.1700 -74.5411 48° Northeast 532 612 31,000  Level New Center
Wed 09:38:19 AM 40.2847 -74.4058 42° Northeast 538 619 31,000  Level New Center
Wed 09:39:18 AM 40.3828 -74.2639 48° Northeast 532 612 31,000  Level New Center
Wed 09:40:19 AM 40.4728 -74.1075 53° Northeast 532 612 31,000 -642 Level New Center
Wed 09:41:57 AM 40.6222 -73.8592 52° Northeast 541 623 29,300 -1,405 Descending Boston Center
Wed 09:42:57 AM 40.7094 -73.7106 52° Northeast 524 603 27,300 -1,900 Descending Boston Center
Wed 09:43:57 AM 40.7794 -73.5803 55° Northeast 504 580 25,500 -1,650 Descending Boston Center
Wed 09:44:57 AM 40.8581 -73.4389 54° Northeast 484 557 24,000 -750 Descending Boston Center
Wed 09:45:57 AM 40.9528 -73.3031 47° Northeast 471 542 24,000 -200 Level Boston Center
Wed 09:46:57 AM 41.0372 -73.1775 48° Northeast 456 525 23,600 -500 Descending Boston Center
Wed 09:47:57 AM 41.1169 -73.0572 49° Northeast 451 519 23,000 -300 Descending Boston Center
Wed 09:48:57 AM 41.1969 -72.9367 49° Northeast 441 507 23,000  Level Boston Center
Wed 09:49:57 AM 41.2619 -72.7992 58° Northeast 436 502 23,000  Level Boston Center
Wed 09:50:57 AM 41.3186 -72.6475 64° Northeast 436 502 23,000  Level Boston Center
Wed 09:51:57 AM 41.3667 -72.5175 64° Northeast 441 507 23,000 -400 Level Boston Center
Wed 09:52:57 AM 41.4208 -72.3653 65° Northeast 436 502 22,200 -1,050 Descending Boston Center
Wed 09:53:57 AM 41.4769 -72.2156 63° Northeast 420 483 20,900 -1,250 Descending Boston Center
Wed 09:54:57 AM 41.5244 -72.0881 64° Northeast 395 455 19,700 -1,650 Descending Boston Center
Wed 09:55:57 AM 41.5678 -71.9600 66° East 374 430 17,600 -1,300 Descending Boston Center
Wed 09:56:57 AM 41.6047 -71.8375 68° East 368 423 17,100 -1,050 Descending Boston Center
Wed 09:57:57 AM 41.6417 -71.7122 68° East 361 415 15,500 -1,700 Descending Boston Center
Wed 09:58:57 AM 41.6781 -71.5869 69° East 355 409 13,700 -1,800 Descending Boston Center
Wed 09:59:57 AM 41.7128 -71.4722 68° East 340 391 11,900 -1,300 Descending Boston Center
Wed 10:00:57 AM 41.7514 -71.3800 61° Northeast 318 366 11,100 -400 Descending Boston Center
Wed 10:01:57 AM 41.7883 -71.3069 56° Northeast 304 350 11,100 -250 Level Boston Center
Wed 10:02:57 AM 41.8353 -71.2086 57° Northeast 263 303 10,600 -850 Descending Boston Center
Wed 10:03:57 AM 41.8972 -71.1739 23° Northeast 229 264 9,400 -1,300 Descending Boston Center
Wed 10:04:57 AM 41.9558 -71.1894 349° North 213 245 8,000 -1,600 Descending Boston Center
Wed 10:05:57 AM 42.0244 -71.1686 13° North 223 257 6,200 -1,000 Descending Boston Center
Wed 10:06:57 AM 42.0742 -71.1450 19° North 217 250 6,000 -750 Descending Boston Center
Wed 10:07:33 AM 42.1167 -71.1167 26° Northeast 216 249 5,000 -1,250 Descending KA90
Wed 10:08:33 AM 42.1667 -71.1000 14° North 206 237 4,000 -950 Descending KA90
Wed 10:09:33 AM 42.2167 -71.0833 14° North 182 209 3,100 -900 Descending KA90
Wed 10:10:33 AM 42.2667 -71.0667 14° North 158 182 2,200 -900 Descending KA90
Wed 10:11:33 AM 42.3000 -71.0333 36° Northeast 148 170 1,300 -900 Descending KA90
Wed 10:12:33 AM 42.3333 -71.0167 20° North 151 174 400 -900 Descending KA90
Wed 10:15:00 AM 42.3500 -71.0000 North  Level FlightAware

Login

Don't have an account? Register now (free) for customized features, flight alerts, and more!